Time;durP1;ratioP1;P1;durP2;ratioP2;P2;SDS_P1;SDS_P2;PMS_P1;PMS_P2;Temp;Humidity;BMP_temperature;BMP_pressure;BME280_temperature;BME280_humidity;BME280_pressure;Samples;Min_cycle;Max_cycle;Signal;HPM_P1;HPM_P2
2023/04/02 00:01:01;;;;;;;;;6.67;3.67;;;;;12.56;58.66;101150.50;1971364;28;2749256;-79
2023/04/02 00:02:20;;;;;;;;;6.33;6.17;;;;;12.54;59.14;101154.97;1980557;29;2735738;-79
2023/04/02 00:03:41;;;;;;;;;8.50;7.50;;;;;12.56;59.02;101152.28;1965936;28;2740235;-78
2023/04/02 00:05:17;;;;;;;;;6.83;4.83;;;;;12.58;58.91;101155.72;1973464;28;2746127;-78
2023/04/02 00:06:33;;;;;;;;;7.17;4.00;;;;;12.58;58.94;101151.31;1993827;28;2740938;-79
2023/04/02 00:07:51;;;;;;;;;7.33;5.83;;;;;12.59;58.69;101160.91;1976170;28;2745065;-79
2023/04/02 00:09:13;;;;;;;;;8.50;5.50;;;;;12.58;58.61;101156.56;1974246;28;2729453;-78
2023/04/02 00:10:32;;;;;;;;;8.17;7.17;;;;;12.57;58.63;101160.13;1973141;28;2746110;-78
2023/04/02 00:11:48;;;;;;;;;7.50;5.50;;;;;12.57;58.68;101159.25;1973508;28;2754436;-79
2023/04/02 00:13:16;;;;;;;;;8.33;7.00;;;;;12.54;58.42;101154.09;1972892;28;2741942;-79
2023/04/02 00:14:33;;;;;;;;;6.67;5.67;;;;;12.53;58.51;101166.41;1995691;28;2742957;-79
2023/04/02 00:15:49;;;;;;;;;6.17;4.83;;;;;12.53;58.67;101173.47;1964220;28;2745058;-80
2023/04/02 00:17:04;;;;;;;;;5.83;4.00;;;;;12.52;58.42;101156.78;1969200;28;2740930;-78
2023/04/02 00:18:21;;;;;;;;;5.33;5.33;;;;;12.51;58.57;101165.63;1972605;28;2739865;-79
2023/04/02 00:19:42;;;;;;;;;7.67;7.00;;;;;12.51;58.75;101162.97;1933857;28;2746195;-78
2023/04/02 00:21:10;;;;;;;;;7.33;7.33;;;;;12.49;58.44;101175.34;1990932;28;2743391;-79
2023/04/02 00:22:27;;;;;;;;;7.83;5.17;;;;;12.47;58.60;101170.13;1973794;28;2735702;-79
2023/04/02 00:23:42;;;;;;;;;4.83;4.83;;;;;12.47;58.47;101170.13;1973861;28;2740900;-79
2023/04/02 00:24:55;;;;;;;;;6.67;6.00;;;;;12.46;58.80;101162.28;1948439;28;2747164;-79
2023/04/02 00:26:24;;;;;;;;;9.33;6.67;;;;;12.45;58.59;101165.81;1971364;28;2756511;-78
2023/04/02 00:27:35;;;;;;;;;7.67;5.67;;;;;12.42;58.73;101171.22;1962252;28;2750364;-79
2023/04/02 00:28:45;;;;;;;;;5.67;4.00;;;;;12.42;58.55;101172.03;1964167;28;2754460;-80
2023/04/02 00:29:58;;;;;;;;;8.00;5.00;;;;;12.42;58.58;101174.69;1995022;28;2740896;-79
2023/04/02 00:31:11;;;;;;;;;4.67;4.67;;;;;12.41;58.48;101175.59;1974701;28;2745077;-80
2023/04/02 00:32:31;;;;;;;;;4.33;4.33;;;;;12.38;58.69;101168.66;1972639;28;2739924;-79
2023/04/02 00:33:45;;;;;;;;;5.67;4.00;;;;;12.38;58.87;101176.56;1973542;28;2740927;-79
2023/04/02 00:34:59;;;;;;;;;5.67;4.67;;;;;12.37;58.68;101179.28;1973567;28;2748190;-76
2023/04/02 00:36:13;;;;;;;;;5.50;4.00;;;;;12.34;58.64;101171.47;1972782;28;2748235;-80
2023/04/02 00:37:27;;;;;;;;;7.33;5.67;;;;;12.33;58.83;101180.25;1970734;28;2746122;-80
2023/04/02 00:38:42;;;;;;;;;10.33;5.67;;;;;12.34;58.83;101190.78;1972504;28;2755481;-80
2023/04/02 00:40:14;;;;;;;;;3.50;3.50;;;;;12.33;58.56;101177.63;1997650;28;2747179;-80
2023/04/02 00:41:30;;;;;;;;;3.83;3.83;;;;;12.34;59.27;101179.38;1998417;28;2741936;-80
2023/04/02 00:42:43;;;;;;;;;5.50;4.50;;;;;12.34;59.12;101177.59;1974467;28;2743353;-80
2023/04/02 00:43:58;;;;;;;;;5.33;5.33;;;;;12.35;59.09;101181.06;1997498;28;2740907;-80
2023/04/02 00:45:31;;;;;;;;;4.00;4.00;;;;;12.36;59.26;101174.91;1948223;28;3467949;-80
2023/04/02 00:46:48;;;;;;;;;6.00;5.50;;;;;12.36;59.28;101183.69;1997130;28;2738828;-80
2023/04/02 00:48:34;;;;;;;;;6.33;3.50;;;;;12.35;58.97;101181.94;1997418;28;2750258;-80
2023/04/02 00:49:47;;;;;;;;;3.33;3.00;;;;;12.35;59.09;101181.94;1939360;28;3457007;-80
2023/04/02 00:51:15;;;;;;;;;3.50;3.00;;;;;12.33;59.31;101186.41;1990507;28;2739868;-80
2023/04/02 00:52:29;;;;;;;;;6.67;6.67;;;;;12.32;59.06;101197.00;1971932;28;2740895;-80
2023/04/02 00:53:46;;;;;;;;;7.33;6.67;;;;;12.30;59.23;101183.03;1997802;28;2740972;-79
2023/04/02 00:55:12;;;;;;;;;9.33;5.83;;;;;12.26;59.28;101177.84;1974143;28;2748174;-80
2023/04/02 00:56:50;;;;;;;;;6.50;5.83;;;;;12.26;59.27;101195.44;1974201;28;2746608;-80
2023/04/02 00:58:18;;;;;;;;;6.67;5.00;;;;;12.24;59.17;101194.63;1967877;28;2746128;-80
2023/04/02 00:59:41;;;;;;;;;7.67;7.17;;;;;12.22;59.77;101191.19;1974746;28;2735706;-79
2023/04/02 01:00:55;;;;;;;;;5.67;5.67;;;;;12.19;59.65;101196.53;1998060;28;2740926;-80
2023/04/02 01:02:16;;;;;;;;;6.67;5.50;;;;;12.17;59.50;101187.84;1973977;28;2738796;-79
2023/04/02 01:03:35;;;;;;;;;8.67;7.17;;;;;12.16;59.65;101202.78;1974794;28;2739849;-79
2023/04/02 01:04:59;;;;;;;;;10.83;7.67;;;;;12.12;60.09;101194.06;1995525;28;2751305;-80
2023/04/02 01:06:17;;;;;;;;;8.33;6.67;;;;;12.11;59.88;101195.00;1941209;28;2736735;-78
2023/04/02 01:07:50;;;;;;;;;4.83;4.00;;;;;12.09;60.52;101196.81;1990330;28;2748690;-79
2023/04/02 01:09:34;;;;;;;;;7.50;6.17;;;;;12.10;59.98;101201.16;1999893;28;2739916;-78
2023/04/02 01:11:18;;;;;;;;;3.00;3.00;;;;;12.09;60.19;101201.22;1987617;28;2741924;-78
2023/04/02 01:12:39;;;;;;;;;9.33;5.33;;;;;12.07;60.01;101203.91;1969049;28;2757650;-79
2023/04/02 01:14:27;;;;;;;;;7.17;7.00;;;;;12.06;60.22;101202.19;2004264;28;2734630;-79
2023/04/02 01:16:12;;;;;;;;;5.00;4.00;;;;;12.05;60.25;101210.97;1968307;28;2745065;-79
2023/04/02 01:17:53;;;;;;;;;7.00;6.00;;;;;12.06;60.42;101201.31;1947322;29;3440922;-79
2023/04/02 01:19:21;;;;;;;;;7.83;6.50;;;;;12.04;60.25;101210.13;1981625;28;2735717;-79
2023/04/02 01:20:46;;;;;;;;;7.67;7.00;;;;;12.06;60.20;101204.81;1996477;28;2741334;-79
2023/04/02 01:22:17;;;;;;;;;5.50;5.50;;;;;12.04;60.35;101209.28;1973620;28;2744060;-79
2023/04/02 01:23:34;;;;;;;;;4.50;4.50;;;;;12.03;60.41;101208.41;1974357;28;2746115;-79
2023/04/02 01:24:48;;;;;;;;;6.00;6.00;;;;;12.03;60.36;101218.94;1975137;28;2735690;-79
2023/04/02 01:26:07;;;;;;;;;10.67;8.67;;;;;12.04;60.58;101214.53;1948931;28;2762781;-78
2023/04/02 01:27:28;;;;;;;;;7.33;7.33;;;;;12.06;60.47;101214.47;1998027;28;2739840;-78
2023/04/02 01:29:00;;;;;;;;;6.50;6.00;;;;;12.06;60.30;101217.97;1973878;28;2746130;-78
2023/04/02 01:30:13;;;;;;;;;8.67;6.00;;;;;12.05;60.05;101216.25;1966545;28;3448218;-79
2023/04/02 01:31:29;;;;;;;;;7.67;6.17;;;;;12.06;60.47;101220.63;1989889;28;2743024;-79
2023/04/02 01:32:42;;;;;;;;;10.17;8.00;;;;;12.06;60.01;101210.06;1997447;28;2740883;-79
2023/04/02 01:33:56;;;;;;;;;6.00;4.33;;;;;12.04;60.12;101210.13;1973540;28;2748196;-79
2023/04/02 01:35:08;;;;;;;;;8.33;5.67;;;;;12.05;60.44;101213.59;1949055;28;2740890;-79
2023/04/02 01:36:33;;;;;;;;;7.00;6.00;;;;;12.05;60.26;101216.25;1997139;28;2732570;-79
2023/04/02 01:37:58;;;;;;;;;5.83;4.17;;;;;12.01;60.62;101219.91;2003630;28;2742994;-78
2023/04/02 01:39:46;;;;;;;;;6.83;4.00;;;;;11.99;60.69;101227.84;1974424;28;2741355;-79
2023/04/02 01:41:10;;;;;;;;;5.83;5.83;;;;;11.97;61.17;101220.91;1974824;28;2739860;-79
2023/04/02 01:42:43;;;;;;;;;6.83;4.50;;;;;11.95;61.53;101222.72;1997886;28;2746143;-79
2023/04/02 01:44:05;;;;;;;;;6.50;5.33;;;;;11.94;61.37;101229.78;1973752;28;2744017;-79
2023/04/02 01:45:20;;;;;;;;;6.17;3.33;;;;;11.92;61.38;101229.81;1968717;28;2747147;-79
2023/04/02 01:46:39;;;;;;;;;8.83;5.33;;;;;11.92;61.71;101221.94;1974870;28;2746224;-79
2023/04/02 01:47:52;;;;;;;;;5.50;5.50;;;;;11.91;61.45;101225.47;1974930;28;2737766;-79
2023/04/02 01:49:12;;;;;;;;;6.00;3.83;;;;;11.91;61.69;101236.00;1972414;28;2749276;-79
2023/04/02 01:50:32;;;;;;;;;6.83;4.67;;;;;11.89;61.66;101237.81;1974478;28;2743014;-78
2023/04/02 01:51:51;;;;;;;;;3.83;3.00;;;;;11.87;61.52;101229.09;1974626;28;2745070;-79
2023/04/02 01:53:10;;;;;;;;;5.50;3.67;;;;;11.85;61.55;101230.94;1996886;28;2751320;-79
2023/04/02 01:54:24;;;;;;;;;4.00;2.50;;;;;11.83;61.78;101230.09;1974080;28;2750250;-79
2023/04/02 01:56:06;;;;;;;;;2.83;2.83;;;;;11.81;61.25;101240.69;1997582;28;2747483;-79
2023/04/02 01:57:19;;;;;;;;;3.83;3.00;;;;;11.79;61.28;101233.72;1972604;28;2741937;-79
2023/04/02 01:58:33;;;;;;;;;2.50;2.50;;;;;11.78;61.56;101229.34;1974927;28;2742528;-79
2023/04/02 01:59:46;;;;;;;;;4.83;2.83;;;;;11.78;61.47;101240.75;1973029;28;2748191;-80
2023/04/02 02:01:13;;;;;;;;;3.67;3.00;;;;;11.77;60.84;101232.91;1999197;28;2752352;-79
2023/04/02 02:02:27;;;;;;;;;2.33;2.33;;;;;11.77;61.36;101231.16;2004700;28;2737783;-79
2023/04/02 02:03:42;;;;;;;;;2.83;2.83;;;;;11.77;61.29;101230.28;1997208;28;2752353;-79
2023/04/02 02:04:55;;;;;;;;;1.17;1.17;;;;;11.76;61.28;101231.19;1973773;28;2754469;-79
2023/04/02 02:06:13;;;;;;;;;3.00;2.67;;;;;11.75;61.27;101222.44;1973271;28;2734088;-79
2023/04/02 02:07:27;;;;;;;;;5.17;2.83;;;;;11.78;61.39;101229.34;1990055;28;2750286;-79
2023/04/02 02:08:48;;;;;;;;;4.00;3.67;;;;;11.79;61.23;101237.22;1989021;28;2754485;-79
2023/04/02 02:10:02;;;;;;;;;1.67;1.67;;;;;11.80;61.04;101233.66;1967899;28;2741918;-79
2023/04/02 02:11:20;;;;;;;;;3.83;0.67;;;;;11.82;61.03;101241.53;1966279;28;2750286;-79
2023/04/02 02:12:33;;;;;;;;;2.50;0.83;;;;;11.81;61.07;101238.03;1988536;28;2746083;-79
2023/04/02 02:13:51;;;;;;;;;3.33;3.33;;;;;11.82;61.42;101238.91;1989364;28;2746513;-79
2023/04/02 02:15:15;;;;;;;;;1.50;1.33;;;;;11.82;61.41;101242.41;1990772;28;2731536;-79
2023/04/02 02:16:30;;;;;;;;;2.67;2.67;;;;;11.79;61.91;101236.38;1989534;28;2737755;-78
2023/04/02 02:17:44;;;;;;;;;3.67;2.17;;;;;11.76;61.98;101236.44;1966529;28;2754433;-78
2023/04/02 02:19:03;;;;;;;;;2.67;2.67;;;;;11.76;61.61;101249.63;1966254;28;2748217;-79
2023/04/02 02:20:17;;;;;;;;;2.83;2.00;;;;;11.74;61.54;101249.66;1989276;28;2754473;-79
2023/04/02 02:21:42;;;;;;;;;3.83;1.67;;;;;11.73;62.05;101247.09;1966501;28;2749260;-80
2023/04/02 02:22:56;;;;;;;;;2.00;2.00;;;;;11.71;61.80;101252.38;1966413;28;2747583;-80
2023/04/02 02:24:27;;;;;;;;;1.50;1.50;;;;;11.69;62.02;101251.56;1989421;28;2750281;-80
2023/04/02 02:25:40;;;;;;;;;1.33;1.00;;;;;11.69;61.88;101254.22;1990027;28;2721113;-80
2023/04/02 02:27:25;;;;;;;;;2.67;2.00;;;;;11.68;61.72;101255.97;1966381;28;2745042;-80
2023/04/02 02:28:42;;;;;;;;;0.67;0.67;;;;;11.68;61.81;101261.25;1965910;28;2733619;-80
2023/04/02 02:29:59;;;;;;;;;1.17;1.17;;;;;11.68;61.78;101260.41;1989708;28;2741981;-79
2023/04/02 02:31:21;;;;;;;;;3.50;2.67;;;;;11.63;62.50;101260.50;1966798;28;2750294;-78
2023/04/02 02:32:48;;;;;;;;;2.33;1.17;;;;;11.62;62.06;101266.69;1966518;28;2746099;-79
2023/04/02 02:34:07;;;;;;;;;1.50;1.50;;;;;11.61;62.11;101262.31;1966902;28;2742983;-80
2023/04/02 02:35:27;;;;;;;;;2.33;1.33;;;;;11.63;62.09;101272.84;1989524;28;2746116;-80
2023/04/02 02:36:55;;;;;;;;;2.50;2.50;;;;;11.61;62.02;101269.34;1966856;28;2752340;-79
2023/04/02 02:38:33;;;;;;;;;1.33;0.50;;;;;11.59;63.17;101272.03;1975199;28;2737770;-77
2023/04/02 02:39:52;;;;;;;;;1.17;1.17;;;;;11.55;63.48;101280.94;1981599;29;2728448;-80
2023/04/02 02:41:42;;;;;;;;;2.00;1.50;;;;;11.52;63.64;101281.91;1981048;29;2752354;-79
2023/04/02 02:43:01;;;;;;;;;2.67;2.00;;;;;11.50;63.54;101290.75;1966093;28;2754448;-79
2023/04/02 02:44:22;;;;;;;;;2.17;1.00;;;;;11.48;63.92;101289.00;1974992;28;2728395;-78
2023/04/02 02:45:40;;;;;;;;;2.50;2.50;;;;;11.47;64.51;101294.31;1966885;28;2751352;-77
2023/04/02 02:47:14;;;;;;;;;4.00;1.50;;;;;11.45;64.38;101288.25;1966088;28;2752344;-78
2023/04/02 02:48:36;;;;;;;;;1.67;1.67;;;;;11.42;63.99;101290.94;1967715;28;2735739;-78
2023/04/02 02:49:53;;;;;;;;;1.67;1.67;;;;;11.39;64.08;101294.53;1996301;28;2741932;-78
2023/04/02 02:51:19;;;;;;;;;2.00;1.50;;;;;11.38;64.41;101290.19;1994992;28;2754832;-78
2023/04/02 02:52:37;;;;;;;;;2.17;2.17;;;;;11.39;64.57;101297.16;1965653;28;2750777;-78
2023/04/02 02:53:55;;;;;;;;;1.83;1.50;;;;;11.39;65.24;101305.06;1966971;28;2752380;-78
2023/04/02 02:55:16;;;;;;;;;0.50;0.50;;;;;11.36;65.28;101294.59;1967565;28;2728414;-79
2023/04/02 02:56:36;;;;;;;;;3.67;2.83;;;;;11.34;64.93;101299.91;1989223;28;2746597;-78
2023/04/02 02:58:03;;;;;;;;;1.83;1.83;;;;;11.31;66.88;101293.88;1966521;28;2746102;-78
2023/04/02 02:59:19;;;;;;;;;2.00;2.00;;;;;11.31;65.30;101300.00;1989750;28;2741941;-77
2023/04/02 03:00:34;;;;;;;;;1.50;1.50;;;;;11.31;66.23;101304.41;1989176;28;2750269;-78
2023/04/02 03:01:48;;;;;;;;;1.83;1.50;;;;;11.30;65.67;101300.03;1965091;28;2754850;-77
2023/04/02 03:03:08;;;;;;;;;2.33;2.33;;;;;11.28;66.23;101302.72;1973203;28;2754425;-77
2023/04/02 03:04:22;;;;;;;;;2.33;2.33;;;;;11.24;66.01;101304.56;1971785;28;2744023;-78
2023/04/02 03:05:37;;;;;;;;;2.00;2.00;;;;;11.23;65.84;101302.84;1973925;28;2748584;-78
2023/04/02 03:06:52;;;;;;;;;2.17;1.50;;;;;11.22;65.87;101306.38;1989038;28;2742020;-78
2023/04/02 03:08:15;;;;;;;;;2.83;2.17;;;;;11.23;65.95;101315.13;1966548;28;2736736;-77
2023/04/02 03:09:39;;;;;;;;;3.33;3.33;;;;;11.21;66.47;101314.31;1966910;28;2733620;-77
2023/04/02 03:11:03;;;;;;;;;3.33;3.00;;;;;11.20;66.01;101313.47;1966280;28;2736724;-77
2023/04/02 03:12:40;;;;;;;;;2.33;2.33;;;;;11.18;66.28;101309.13;1964728;28;2753459;-78
2023/04/02 03:14:06;;;;;;;;;3.83;3.83;;;;;11.18;65.99;101315.25;1966586;28;2748207;-77
2023/04/02 03:15:57;;;;;;;;;2.83;2.83;;;;;11.18;67.58;101314.41;1972392;28;2753387;-77
2023/04/02 03:17:19;;;;;;;;;3.33;3.00;;;;;11.14;66.73;101309.22;1991201;28;2745070;-76
2023/04/02 03:18:38;;;;;;;;;1.00;1.00;;;;;11.12;66.68;101308.38;1974703;28;2722145;-77
2023/04/02 03:19:57;;;;;;;;;2.00;2.00;;;;;11.12;65.94;101311.03;1987759;28;2742971;-77
2023/04/02 03:22:01;;;;;;;;;2.67;2.33;;;;;11.12;66.09;101315.41;1989695;28;2739838;-77
2023/04/02 03:23:22;;;;;;;;;3.33;2.67;;;;;11.11;66.45;101314.53;1971629;29;2740915;-76
2023/04/02 03:24:50;;;;;;;;;2.50;2.50;;;;;11.10;67.11;101322.47;1973115;29;2741952;-77
2023/04/02 03:26:12;;;;;;;;;2.33;2.33;;;;;11.07;66.48;101318.16;1966037;28;2752342;-76
2023/04/02 03:27:31;;;;;;;;;3.00;2.00;;;;;11.06;66.99;101315.59;1988600;28;2748193;-76
2023/04/02 03:28:53;;;;;;;;;4.00;4.00;;;;;11.06;66.78;101316.47;1967313;28;2752353;-76
2023/04/02 03:30:32;;;;;;;;;2.83;2.83;;;;;11.06;66.46;101323.47;1971484;28;2753443;-77
2023/04/02 03:31:53;;;;;;;;;2.33;2.33;;;;;11.06;66.49;101328.75;1965992;28;2742477;-76
2023/04/02 03:33:33;;;;;;;;;2.00;2.00;;;;;11.07;66.60;101333.06;1966558;28;2750282;-76
2023/04/02 03:34:54;;;;;;;;;2.00;2.00;;;;;11.05;66.55;101329.63;1964924;28;2754451;-77
2023/04/02 03:36:32;;;;;;;;;2.00;2.00;;;;;11.03;66.49;101333.19;1965880;28;2754437;-77
2023/04/02 03:38:03;;;;;;;;;2.17;2.00;;;;;11.01;66.68;101340.22;1966094;28;2750262;-77
2023/04/02 03:39:34;;;;;;;;;2.00;2.00;;;;;11.00;66.80;101338.50;1965637;28;2740923;-76
2023/04/02 03:40:54;;;;;;;;;2.33;2.33;;;;;11.00;66.41;101338.50;1971688;28;2754436;-77
2023/04/02 03:42:21;;;;;;;;;3.00;3.00;;;;;10.99;66.52;101341.16;1991979;28;2754433;-76
2023/04/02 03:43:45;;;;;;;;;2.33;2.33;;;;;10.97;66.90;101341.22;1969870;28;2750258;-77
2023/04/02 03:45:12;;;;;;;;;3.00;3.00;;;;;10.96;66.59;101341.25;1971615;28;2750298;-76
2023/04/02 03:46:32;;;;;;;;;5.00;3.33;;;;;10.93;66.48;101357.97;1966601;28;2745053;-77
2023/04/02 03:47:49;;;;;;;;;4.83;3.17;;;;;10.90;66.65;101343.13;1965458;28;2750309;-77
2023/04/02 03:49:10;;;;;;;;;2.50;2.50;;;;;10.87;66.51;101348.47;1965182;28;2737759;-77
2023/04/02 03:50:32;;;;;;;;;4.17;4.00;;;;;10.84;66.34;101353.78;1981071;28;2754929;-78
2023/04/02 03:52:10;;;;;;;;;3.33;3.00;;;;;10.84;66.46;101351.16;1966371;28;2737864;-77
2023/04/02 03:53:26;;;;;;;;;4.33;4.33;;;;;10.84;67.16;101352.94;1952965;29;2750262;-77
2023/04/02 03:54:41;;;;;;;;;3.17;3.17;;;;;10.83;66.70;101348.56;1962703;28;2730468;-78
2023/04/02 03:55:55;;;;;;;;;5.83;4.17;;;;;10.83;66.43;101356.47;1990335;28;2754424;-77
2023/04/02 03:57:31;;;;;;;;;3.50;3.50;;;;;10.82;66.15;101349.47;1973484;28;2740265;-78
2023/04/02 03:58:50;;;;;;;;;6.33;4.33;;;;;10.80;66.67;101355.63;1965852;28;2749926;-78
2023/04/02 04:00:15;;;;;;;;;4.33;4.33;;;;;10.80;66.21;101363.53;1988421;28;2754472;-78
2023/04/02 04:01:36;;;;;;;;;5.00;4.00;;;;;10.79;66.13;101360.94;1966063;28;2745077;-78
2023/04/02 04:02:56;;;;;;;;;5.00;5.00;;;;;10.79;66.24;101359.16;1966200;28;2742993;-78
2023/04/02 04:04:15;;;;;;;;;8.50;5.67;;;;;10.79;66.29;101367.03;1967662;28;2742995;-78
2023/04/02 04:05:33;;;;;;;;;5.50;3.00;;;;;10.79;66.36;101367.03;1994467;28;2750285;-78
2023/04/02 04:06:51;;;;;;;;;5.00;4.00;;;;;10.80;66.32;101370.56;1965231;28;2752364;-77
2023/04/02 04:08:12;;;;;;;;;5.33;4.67;;;;;10.80;66.56;101367.91;1967446;28;2741950;-78
2023/04/02 04:09:32;;;;;;;;;7.33;5.50;;;;;10.79;66.22;101372.31;1997025;28;2740417;-78
2023/04/02 04:10:51;;;;;;;;;3.00;2.17;;;;;10.78;65.93;101369.72;1996461;28;2742410;-78
2023/04/02 04:12:23;;;;;;;;;5.00;5.00;;;;;10.77;66.08;101376.75;1996431;28;2746143;-78
2023/04/02 04:13:52;;;;;;;;;4.33;4.33;;;;;10.76;65.49;101382.03;1973349;28;2742984;-79
2023/04/02 04:15:15;;;;;;;;;4.67;4.17;;;;;10.75;65.68;101381.19;1994858;28;2739863;-78
2023/04/02 04:16:33;;;;;;;;;6.00;5.50;;;;;10.75;65.67;101375.91;1996080;28;2746106;-79
2023/04/02 04:18:00;;;;;;;;;5.00;5.00;;;;;10.75;66.02;101393.44;1972683;28;2746100;-78
2023/04/02 04:19:16;;;;;;;;;6.50;5.17;;;;;10.74;66.28;101387.31;1973482;28;2746099;-77
2023/04/02 04:21:00;;;;;;;;;8.00;6.17;;;;;10.71;65.61;101384.78;1974376;28;2734649;-78
2023/04/02 04:22:32;;;;;;;;;5.83;5.83;;;;;10.72;65.88;101383.03;1996445;28;2742973;-78
2023/04/02 04:23:50;;;;;;;;;6.00;5.33;;;;;10.72;65.95;101391.75;2003446;28;2741932;-78
2023/04/02 04:25:06;;;;;;;;;6.83;6.83;;;;;10.72;65.65;101386.50;1973959;28;2746117;-78
2023/04/02 04:26:40;;;;;;;;;8.17;7.00;;;;;10.72;65.99;101391.75;1996489;28;2738844;-78
2023/04/02 04:28:12;;;;;;;;;7.00;6.67;;;;;10.70;65.62;101383.03;1970045;28;2736829;-78
2023/04/02 04:29:46;;;;;;;;;7.00;6.17;;;;;10.69;65.84;101392.69;1995809;28;2745073;-78
2023/04/02 04:31:16;;;;;;;;;9.33;8.00;;;;;10.68;65.95;101400.63;1971132;28;2751685;-78
2023/04/02 04:32:37;;;;;;;;;8.17;7.00;;;;;10.68;66.04;101390.09;1996250;28;2748206;-78
2023/04/02 04:33:54;;;;;;;;;10.00;8.00;;;;;10.67;65.93;101391.00;1963663;28;2751303;-78
2023/04/02 04:35:21;;;;;;;;;7.67;7.33;;;;;10.68;65.83;101400.63;1993850;28;2740918;-78
2023/04/02 04:36:53;;;;;;;;;8.33;6.67;;;;;10.68;65.64;101401.50;1996587;28;2744051;-77
2023/04/02 04:38:13;;;;;;;;;8.67;7.33;;;;;10.67;66.11;101393.63;1970798;28;2733615;-77
2023/04/02 04:39:41;;;;;;;;;7.67;6.67;;;;;10.65;65.79;101404.19;1996351;28;2737786;-77
2023/04/02 04:40:58;;;;;;;;;8.17;7.17;;;;;10.65;65.99;101404.19;1974202;28;2739880;-77
2023/04/02 04:42:21;;;;;;;;;8.00;7.00;;;;;10.64;65.72;101401.59;1947136;28;2746180;-77
2023/04/02 04:43:37;;;;;;;;;6.83;6.67;;;;;10.63;66.17;101407.75;1995966;28;2739841;-77
2023/04/02 04:45:01;;;;;;;;;9.00;9.00;;;;;10.62;65.56;101406.03;1970212;28;2743162;-78
2023/04/02 04:46:24;;;;;;;;;9.17;8.83;;;;;10.61;65.79;101404.28;1990522;28;2750250;-78
2023/04/02 04:47:39;;;;;;;;;10.00;8.67;;;;;10.61;65.75;101409.56;1947384;28;2761846;-77
2023/04/02 04:48:59;;;;;;;;;4.17;4.00;;;;;10.62;65.78;101413.94;1996376;28;2735039;-78
2023/04/02 04:50:20;;;;;;;;;9.33;9.33;;;;;10.61;65.54;101415.69;1947046;28;2757639;-78
2023/04/02 04:51:43;;;;;;;;;7.83;7.83;;;;;10.62;65.64;101413.94;1996036;28;2737797;-78
2023/04/02 04:52:54;;;;;;;;;9.67;9.67;;;;;10.63;65.75;101416.50;1970052;28;2754837;-78
2023/04/02 04:54:11;;;;;;;;;13.00;10.00;;;;;10.65;66.08;101426.97;1986891;28;3507662;-78
2023/04/02 04:55:27;;;;;;;;;8.67;8.67;;;;;10.64;65.65;101422.63;1969866;28;3459655;-78
2023/04/02 04:56:39;;;;;;;;;13.00;11.00;;;;;10.63;65.68;101424.41;1958003;28;3516910;-78
2023/04/02 04:57:54;;;;;;;;;11.67;10.00;;;;;10.64;65.99;101430.53;1937937;28;3505444;-78
2023/04/02 04:59:21;;;;;;;;;10.50;9.25;;;;;10.65;65.76;101437.50;1984375;28;1837810;-78
2023/04/02 05:01:00;;;;;;;;;13.00;12.00;;;;;10.65;65.93;101434.88;1966985;28;3524275;-78
2023/04/02 05:02:22;;;;;;;;;10.67;10.00;;;;;10.63;66.29;101445.44;1969170;28;3503373;-76
2023/04/02 05:03:43;;;;;;;;;9.67;8.67;;;;;10.62;66.37;101437.59;1995597;28;2742973;-78
2023/04/02 05:04:55;;;;;;;;;13.00;9.50;;;;;10.59;66.39;101435.88;1960540;28;1840349;-78
2023/04/02 05:06:18;;;;;;;;;10.50;8.75;;;;;10.58;66.36;101436.78;1983708;28;1833640;-77
2023/04/02 05:07:42;;;;;;;;;11.67;9.00;;;;;10.57;66.02;101443.78;1969127;28;3493022;-78
2023/04/02 05:08:58;;;;;;;;;12.00;9.00;;;;;10.57;66.00;101446.41;1954634;29;2768034;-79
2023/04/02 05:10:15;;;;;;;;;10.50;10.25;;;;;10.57;66.13;101441.16;1967635;28;1829502;-78
2023/04/02 05:11:35;;;;;;;;;11.00;10.75;;;;;10.56;66.01;101447.34;1966848;29;1850286;-78
2023/04/02 05:12:55;;;;;;;;;14.00;12.00;;;;;10.54;66.61;101451.72;1974344;28;1852842;-78
2023/04/02 05:14:31;;;;;;;;;13.67;12.00;;;;;10.54;66.10;101453.50;1975726;28;3517947;-78
2023/04/02 05:16:03;;;;;;;;;13.17;12.17;;;;;10.54;66.06;101451.72;1968867;28;1819064;-79
2023/04/02 05:17:26;;;;;;;;;13.83;11.83;;;;;10.57;66.27;101453.44;1973472;28;1819541;-79
2023/04/02 05:18:55;;;;;;;;;12.67;10.67;;;;;10.57;65.71;101461.31;1951680;28;3512182;-78
2023/04/02 05:20:15;;;;;;;;;13.00;12.00;;;;;10.57;65.74;101459.56;1966903;28;2794025;-78
2023/04/02 05:21:37;;;;;;;;;13.00;12.00;;;;;10.55;65.75;101463.13;1966654;28;2814858;-79
2023/04/02 05:22:59;;;;;;;;;12.50;12.00;;;;;10.54;66.02;101459.63;1965615;28;2784628;-79
2023/04/02 05:24:34;;;;;;;;;15.00;13.00;;;;;10.50;65.76;101463.19;1952851;28;2796097;-79
2023/04/02 05:25:54;;;;;;;;;13.00;12.00;;;;;10.48;66.24;101462.34;1950419;28;2778408;-79
2023/04/02 05:27:17;;;;;;;;;13.50;12.50;;;;;10.46;66.35;101478.16;1966447;28;2791939;-79
2023/04/02 05:28:34;;;;;;;;;13.50;11.50;;;;;10.45;66.34;101472.91;1967071;28;2782548;-78
2023/04/02 05:30:04;;;;;;;;;13.00;13.00;;;;;10.45;66.17;101471.16;1969351;28;2788830;-79
2023/04/02 05:31:21;;;;;;;;;16.50;12.00;;;;;10.46;65.94;101483.44;1969490;28;2792973;-78
2023/04/02 05:32:39;;;;;;;;;11.00;11.00;;;;;10.45;66.02;101472.91;1969642;28;2789871;-78
2023/04/02 05:33:50;;;;;;;;;12.00;11.00;;;;;10.44;65.81;101471.22;1969721;28;2796116;-79
2023/04/02 05:35:05;;;;;;;;;10.00;10.00;;;;;10.46;65.85;101478.16;1954598;28;3515847;-78
2023/04/02 05:36:22;;;;;;;;;12.50;12.00;;;;;10.45;66.19;101480.81;1969166;28;2794460;-79
2023/04/02 05:37:33;;;;;;;;;13.00;11.00;;;;;10.44;66.03;101479.97;1947780;28;3511766;-78
2023/04/02 05:38:46;;;;;;;;;13.50;12.50;;;;;10.47;66.02;101486.88;1964680;28;2791942;-79
2023/04/02 05:40:05;;;;;;;;;13.00;11.50;;;;;10.47;66.13;101492.16;1962007;28;2784663;-78
2023/04/02 05:41:30;;;;;;;;;15.50;13.00;;;;;10.45;66.47;101478.19;1968589;28;2798209;-79
2023/04/02 05:42:46;;;;;;;;;18.00;14.50;;;;;10.45;65.99;101486.06;1945590;28;2812791;-78
2023/04/02 05:44:26;;;;;;;;;15.67;11.83;;;;;10.43;65.98;101491.38;1974956;28;1824249;-79
2023/04/02 05:45:41;;;;;;;;;15.00;11.00;;;;;10.43;65.93;101493.13;1939323;28;2788830;-79
2023/04/02 05:47:07;;;;;;;;;16.00;13.00;;;;;10.43;65.80;101496.63;1962597;28;2806513;-79
2023/04/02 05:48:29;;;;;;;;;6.67;6.00;;;;;10.46;65.65;101511.47;1982687;28;2730507;-79
2023/04/02 05:49:55;;;;;;;;;13.50;11.50;;;;;10.47;65.92;101514.03;1971270;28;2786739;-79
2023/04/02 05:51:14;;;;;;;;;16.50;12.75;;;;;10.49;65.77;101513.16;1983727;28;1842986;-79
2023/04/02 05:52:32;;;;;;;;;15.25;11.25;;;;;10.48;65.78;101504.41;1983250;28;1840894;-78
2023/04/02 05:53:53;;;;;;;;;13.00;12.00;;;;;10.50;65.75;101505.25;1961114;28;2791951;-78
2023/04/02 05:55:15;;;;;;;;;11.67;9.67;;;;;10.52;65.79;101513.16;1940243;28;3499214;-79
2023/04/02 05:56:48;;;;;;;;;13.50;11.00;;;;;10.53;66.15;101518.34;1969507;28;2789866;-78
2023/04/02 05:58:14;;;;;;;;;11.50;11.00;;;;;10.52;65.83;101521.03;1969318;28;2786722;-79
2023/04/02 05:59:30;;;;;;;;;16.00;13.00;;;;;10.52;65.63;101511.34;1961447;28;2804849;-79
2023/04/02 06:01:16;;;;;;;;;14.00;13.00;;;;;10.52;65.44;101516.63;1961886;28;2796112;-78
2023/04/02 06:02:35;;;;;;;;;12.50;11.00;;;;;10.53;66.13;101533.25;1940725;28;2797171;-79
2023/04/02 06:03:57;;;;;;;;;9.50;7.00;;;;;10.51;66.76;101535.94;1997745;28;2750652;-77
2023/04/02 06:05:13;;;;;;;;;13.67;9.00;;;;;10.49;66.64;101528.94;1985023;28;1837743;-78
2023/04/02 06:06:42;;;;;;;;;11.25;11.25;;;;;10.46;67.04;101530.72;1961037;28;1841992;-78
2023/04/02 06:08:06;;;;;;;;;10.67;10.00;;;;;10.44;66.65;101529.91;1969153;28;3506500;-78
2023/04/02 06:09:38;;;;;;;;;8.50;6.67;;;;;10.43;66.76;101533.41;1997530;28;2740899;-78
2023/04/02 06:11:06;;;;;;;;;14.33;11.33;;;;;10.42;66.62;101530.81;1968326;28;3520038;-78
2023/04/02 06:12:42;;;;;;;;;14.50;11.00;;;;;10.41;66.77;101532.59;1969017;28;2791966;-79
2023/04/02 06:13:52;;;;;;;;;15.00;12.00;;;;;10.39;66.84;101525.63;1964753;28;2796161;-78